sensor_id;sensor_type;location;lat;lon;timestamp;P1;durP1;ratioP1;P2;durP2;ratioP2
52934;SDS011;38802;50.198;19.796;2022-12-26T00:01:35;38.90;;;20.60;;
52934;SDS011;38802;50.198;19.796;2022-12-26T00:04:05;39.20;;;21.70;;
52934;SDS011;38802;50.198;19.796;2022-12-26T00:06:54;36.90;;;20.60;;
52934;SDS011;38802;50.198;19.796;2022-12-26T00:09:22;37.20;;;20.70;;
52934;SDS011;38802;50.198;19.796;2022-12-26T00:11:51;31.50;;;19.40;;
52934;SDS011;38802;50.198;19.796;2022-12-26T00:14:19;37.20;;;22.10;;
52934;SDS011;38802;50.198;19.796;2022-12-26T00:16:47;37.90;;;19.70;;
52934;SDS011;38802;50.198;19.796;2022-12-26T00:19:15;41.60;;;22.30;;
52934;SDS011;38802;50.198;19.796;2022-12-26T00:21:44;39.10;;;21.30;;
52934;SDS011;38802;50.198;19.796;2022-12-26T00:24:12;38.40;;;21.20;;
52934;SDS011;38802;50.198;19.796;2022-12-26T00:26:40;36.80;;;21.90;;
52934;SDS011;38802;50.198;19.796;2022-12-26T00:29:08;35.90;;;21.20;;
52934;SDS011;38802;50.198;19.796;2022-12-26T00:31:36;37.20;;;21.90;;
52934;SDS011;38802;50.198;19.796;2022-12-26T00:34:05;37.50;;;20.10;;
52934;SDS011;38802;50.198;19.796;2022-12-26T00:36:33;30.80;;;19.10;;
52934;SDS011;38802;50.198;19.796;2022-12-26T00:39:02;37.80;;;19.50;;
52934;SDS011;38802;50.198;19.796;2022-12-26T00:41:30;34.00;;;19.20;;
52934;SDS011;38802;50.198;19.796;2022-12-26T00:43:59;34.70;;;20.30;;
52934;SDS011;38802;50.198;19.796;2022-12-26T00:46:28;41.00;;;20.40;;
52934;SDS011;38802;50.198;19.796;2022-12-26T00:48:56;42.80;;;21.40;;
52934;SDS011;38802;50.198;19.796;2022-12-26T00:51:24;34.50;;;19.70;;
52934;SDS011;38802;50.198;19.796;2022-12-26T00:53:53;37.50;;;20.10;;
52934;SDS011;38802;50.198;19.796;2022-12-26T00:56:21;32.60;;;18.40;;
52934;SDS011;38802;50.198;19.796;2022-12-26T00:58:51;36.50;;;19.40;;
52934;SDS011;38802;50.198;19.796;2022-12-26T01:01:20;33.20;;;19.20;;
52934;SDS011;38802;50.198;19.796;2022-12-26T01:03:50;35.30;;;19.10;;
52934;SDS011;38802;50.198;19.796;2022-12-26T01:06:18;38.30;;;20.70;;
52934;SDS011;38802;50.198;19.796;2022-12-26T01:08:46;40.60;;;21.90;;
52934;SDS011;38802;50.198;19.796;2022-12-26T01:11:15;42.90;;;23.50;;
52934;SDS011;38802;50.198;19.796;2022-12-26T01:14:04;39.40;;;21.20;;
52934;SDS011;38802;50.198;19.796;2022-12-26T01:16:33;36.20;;;20.30;;
52934;SDS011;38802;50.198;19.796;2022-12-26T01:19:02;42.70;;;20.70;;
52934;SDS011;38802;50.198;19.796;2022-12-26T01:21:30;40.30;;;21.80;;
52934;SDS011;38802;50.198;19.796;2022-12-26T01:23:59;44.60;;;23.00;;
52934;SDS011;38802;50.198;19.796;2022-12-26T01:26:27;41.10;;;21.90;;
52934;SDS011;38802;50.198;19.796;2022-12-26T01:28:56;41.00;;;20.20;;
52934;SDS011;38802;50.198;19.796;2022-12-26T01:31:24;36.80;;;18.80;;
52934;SDS011;38802;50.198;19.796;2022-12-26T01:33:52;34.60;;;19.20;;
52934;SDS011;38802;50.198;19.796;2022-12-26T01:36:20;33.30;;;20.00;;
52934;SDS011;38802;50.198;19.796;2022-12-26T01:38:48;31.00;;;19.50;;
52934;SDS011;38802;50.198;19.796;2022-12-26T01:41:16;36.50;;;21.20;;
52934;SDS011;38802;50.198;19.796;2022-12-26T01:52:04;28.60;;;18.30;;
52934;SDS011;38802;50.198;19.796;2022-12-26T01:54:36;38.30;;;19.70;;
52934;SDS011;38802;50.198;19.796;2022-12-26T01:57:17;36.60;;;21.70;;
52934;SDS011;38802;50.198;19.796;2022-12-26T01:59:51;35.80;;;18.70;;
52934;SDS011;38802;50.198;19.796;2022-12-26T02:02:21;32.50;;;17.30;;
52934;SDS011;38802;50.198;19.796;2022-12-26T02:04:54;28.70;;;17.30;;
52934;SDS011;38802;50.198;19.796;2022-12-26T02:07:44;25.10;;;15.30;;
52934;SDS011;38802;50.198;19.796;2022-12-26T02:10:14;24.80;;;16.10;;
52934;SDS011;38802;50.198;19.796;2022-12-26T02:12:47;23.30;;;14.60;;
52934;SDS011;38802;50.198;19.796;2022-12-26T02:15:19;23.80;;;15.60;;
52934;SDS011;38802;50.198;19.796;2022-12-26T02:17:47;23.20;;;14.80;;
52934;SDS011;38802;50.198;19.796;2022-12-26T02:25:51;25.40;;;16.50;;
52934;SDS011;38802;50.198;19.796;2022-12-26T02:36:53;31.60;;;17.70;;
52934;SDS011;38802;50.198;19.796;2022-12-26T02:42:35;30.70;;;17.10;;
52934;SDS011;38802;50.198;19.796;2022-12-26T02:45:22;24.10;;;15.80;;
52934;SDS011;38802;50.198;19.796;2022-12-26T02:51:20;28.30;;;16.00;;
52934;SDS011;38802;50.198;19.796;2022-12-26T02:54:19;31.40;;;16.90;;
52934;SDS011;38802;50.198;19.796;2022-12-26T02:57:18;30.60;;;15.90;;
52934;SDS011;38802;50.198;19.796;2022-12-26T03:03:11;24.40;;;14.90;;
52934;SDS011;38802;50.198;19.796;2022-12-26T03:06:06;24.40;;;14.20;;
52934;SDS011;38802;50.198;19.796;2022-12-26T03:09:12;22.00;;;13.60;;
52934;SDS011;38802;50.198;19.796;2022-12-26T03:12:05;19.20;;;14.00;;
52934;SDS011;38802;50.198;19.796;2022-12-26T03:15:14;18.30;;;12.90;;
52934;SDS011;38802;50.198;19.796;2022-12-26T03:17:48;22.30;;;13.80;;
52934;SDS011;38802;50.198;19.796;2022-12-26T03:20:29;20.80;;;12.10;;
52934;SDS011;38802;50.198;19.796;2022-12-26T03:23:07;19.40;;;11.90;;
52934;SDS011;38802;50.198;19.796;2022-12-26T03:25:39;18.00;;;11.10;;
52934;SDS011;38802;50.198;19.796;2022-12-26T03:28:31;20.50;;;12.20;;
52934;SDS011;38802;50.198;19.796;2022-12-26T03:31:00;19.40;;;10.50;;
52934;SDS011;38802;50.198;19.796;2022-12-26T03:33:32;17.30;;;10.90;;
52934;SDS011;38802;50.198;19.796;2022-12-26T03:39:56;16.80;;;10.00;;
52934;SDS011;38802;50.198;19.796;2022-12-26T03:46:09;13.90;;;7.90;;
52934;SDS011;38802;50.198;19.796;2022-12-26T03:52:14;9.80;;;6.80;;
52934;SDS011;38802;50.198;19.796;2022-12-26T03:58:39;10.90;;;6.70;;
52934;SDS011;38802;50.198;19.796;2022-12-26T04:01:32;13.20;;;6.70;;
52934;SDS011;38802;50.198;19.796;2022-12-26T04:04:23;9.50;;;6.30;;
52934;SDS011;38802;50.198;19.796;2022-12-26T04:07:15;8.00;;;6.90;;
52934;SDS011;38802;50.198;19.796;2022-12-26T04:10:26;7.40;;;6.30;;
52934;SDS011;38802;50.198;19.796;2022-12-26T04:13:45;7.90;;;6.00;;
52934;SDS011;38802;50.198;19.796;2022-12-26T04:16:46;9.20;;;6.00;;
52934;SDS011;38802;50.198;19.796;2022-12-26T04:25:42;5.70;;;5.20;;
52934;SDS011;38802;50.198;19.796;2022-12-26T04:28:32;6.80;;;5.80;;
52934;SDS011;38802;50.198;19.796;2022-12-26T04:31:22;9.30;;;5.90;;
52934;SDS011;38802;50.198;19.796;2022-12-26T04:34:17;7.80;;;5.40;;
52934;SDS011;38802;50.198;19.796;2022-12-26T04:40:06;7.00;;;5.50;;
52934;SDS011;38802;50.198;19.796;2022-12-26T04:42:58;7.10;;;5.50;;
52934;SDS011;38802;50.198;19.796;2022-12-26T04:48:40;6.80;;;5.40;;
52934;SDS011;38802;50.198;19.796;2022-12-26T04:51:51;9.10;;;5.80;;
52934;SDS011;38802;50.198;19.796;2022-12-26T04:54:22;7.10;;;6.40;;
52934;SDS011;38802;50.198;19.796;2022-12-26T04:56:51;15.50;;;7.10;;
52934;SDS011;38802;50.198;19.796;2022-12-26T04:59:20;7.60;;;6.90;;
52934;SDS011;38802;50.198;19.796;2022-12-26T05:01:49;11.20;;;7.20;;
52934;SDS011;38802;50.198;19.796;2022-12-26T05:04:37;10.60;;;7.30;;
52934;SDS011;38802;50.198;19.796;2022-12-26T05:07:26;8.40;;;6.50;;
52934;SDS011;38802;50.198;19.796;2022-12-26T05:10:16;8.50;;;6.80;;
52934;SDS011;38802;50.198;19.796;2022-12-26T05:12:47;9.70;;;6.80;;
52934;SDS011;38802;50.198;19.796;2022-12-26T05:15:16;9.80;;;7.00;;
52934;SDS011;38802;50.198;19.796;2022-12-26T05:17:45;13.20;;;7.90;;
52934;SDS011;38802;50.198;19.796;2022-12-26T05:20:32;8.50;;;6.60;;
52934;SDS011;38802;50.198;19.796;2022-12-26T05:23:21;9.10;;;7.40;;
52934;SDS011;38802;50.198;19.796;2022-12-26T05:26:19;11.80;;;8.20;;
52934;SDS011;38802;50.198;19.796;2022-12-26T05:29:09;10.70;;;7.00;;
52934;SDS011;38802;50.198;19.796;2022-12-26T05:31:37;14.70;;;8.90;;
52934;SDS011;38802;50.198;19.796;2022-12-26T05:34:05;9.50;;;7.50;;
52934;SDS011;38802;50.198;19.796;2022-12-26T05:36:46;11.00;;;7.90;;
52934;SDS011;38802;50.198;19.796;2022-12-26T05:39:17;10.00;;;8.00;;
52934;SDS011;38802;50.198;19.796;2022-12-26T05:41:46;9.90;;;7.60;;
52934;SDS011;38802;50.198;19.796;2022-12-26T05:44:14;7.80;;;6.70;;
52934;SDS011;38802;50.198;19.796;2022-12-26T05:46:43;11.60;;;7.70;;
52934;SDS011;38802;50.198;19.796;2022-12-26T05:49:11;8.30;;;7.30;;
52934;SDS011;38802;50.198;19.796;2022-12-26T05:51:40;13.40;;;7.90;;
52934;SDS011;38802;50.198;19.796;2022-12-26T05:54:08;8.90;;;6.70;;
52934;SDS011;38802;50.198;19.796;2022-12-26T05:56:36;8.20;;;7.00;;
52934;SDS011;38802;50.198;19.796;2022-12-26T05:59:05;9.00;;;7.40;;
52934;SDS011;38802;50.198;19.796;2022-12-26T06:01:33;9.70;;;7.40;;
52934;SDS011;38802;50.198;19.796;2022-12-26T06:04:01;10.60;;;7.90;;
52934;SDS011;38802;50.198;19.796;2022-12-26T06:06:30;8.20;;;7.40;;
52934;SDS011;38802;50.198;19.796;2022-12-26T06:08:58;11.00;;;8.30;;
52934;SDS011;38802;50.198;19.796;2022-12-26T06:11:26;11.30;;;8.50;;
52934;SDS011;38802;50.198;19.796;2022-12-26T06:13:55;14.10;;;9.00;;
52934;SDS011;38802;50.198;19.796;2022-12-26T06:16:23;14.20;;;10.30;;
52934;SDS011;38802;50.198;19.796;2022-12-26T06:18:52;17.70;;;11.10;;
52934;SDS011;38802;50.198;19.796;2022-12-26T06:21:21;19.80;;;11.20;;
52934;SDS011;38802;50.198;19.796;2022-12-26T06:23:50;15.90;;;10.90;;
52934;SDS011;38802;50.198;19.796;2022-12-26T06:26:18;13.80;;;11.30;;
52934;SDS011;38802;50.198;19.796;2022-12-26T06:28:47;20.50;;;13.00;;
52934;SDS011;38802;50.198;19.796;2022-12-26T06:31:16;17.50;;;11.80;;
52934;SDS011;38802;50.198;19.796;2022-12-26T06:33:48;18.30;;;11.60;;
52934;SDS011;38802;50.198;19.796;2022-12-26T06:36:19;20.10;;;12.30;;
52934;SDS011;38802;50.198;19.796;2022-12-26T06:38:49;22.30;;;12.40;;
52934;SDS011;38802;50.198;19.796;2022-12-26T06:41:19;23.90;;;12.70;;
52934;SDS011;38802;50.198;19.796;2022-12-26T06:43:49;18.50;;;12.40;;
52934;SDS011;38802;50.198;19.796;2022-12-26T06:46:20;17.60;;;11.70;;
52934;SDS011;38802;50.198;19.796;2022-12-26T06:48:51;17.00;;;11.70;;
52934;SDS011;38802;50.198;19.796;2022-12-26T06:51:24;15.60;;;11.80;;
52934;SDS011;38802;50.198;19.796;2022-12-26T06:53:58;18.50;;;12.00;;
52934;SDS011;38802;50.198;19.796;2022-12-26T06:56:29;15.50;;;10.90;;
52934;SDS011;38802;50.198;19.796;2022-12-26T06:59:01;11.70;;;10.30;;
52934;SDS011;38802;50.198;19.796;2022-12-26T07:01:32;11.40;;;9.80;;
52934;SDS011;38802;50.198;19.796;2022-12-26T07:04:02;13.50;;;10.70;;
52934;SDS011;38802;50.198;19.796;2022-12-26T07:06:32;12.40;;;10.00;;
52934;SDS011;38802;50.198;19.796;2022-12-26T07:09:06;12.70;;;9.90;;
52934;SDS011;38802;50.198;19.796;2022-12-26T07:11:38;13.50;;;9.50;;
52934;SDS011;38802;50.198;19.796;2022-12-26T07:14:08;12.60;;;9.50;;
52934;SDS011;38802;50.198;19.796;2022-12-26T07:16:36;10.30;;;9.20;;
52934;SDS011;38802;50.198;19.796;2022-12-26T07:19:06;13.00;;;9.30;;
52934;SDS011;38802;50.198;19.796;2022-12-26T07:21:37;10.40;;;8.90;;
52934;SDS011;38802;50.198;19.796;2022-12-26T07:24:19;10.80;;;8.40;;
52934;SDS011;38802;50.198;19.796;2022-12-26T07:26:49;11.20;;;9.50;;
52934;SDS011;38802;50.198;19.796;2022-12-26T07:29:17;14.80;;;8.90;;
52934;SDS011;38802;50.198;19.796;2022-12-26T07:31:46;10.80;;;8.90;;
52934;SDS011;38802;50.198;19.796;2022-12-26T07:34:15;10.40;;;9.30;;
52934;SDS011;38802;50.198;19.796;2022-12-26T07:36:44;11.40;;;8.70;;
52934;SDS011;38802;50.198;19.796;2022-12-26T07:39:12;14.00;;;8.70;;
52934;SDS011;38802;50.198;19.796;2022-12-26T07:41:41;11.90;;;9.00;;
52934;SDS011;38802;50.198;19.796;2022-12-26T07:44:25;9.90;;;8.90;;
52934;SDS011;38802;50.198;19.796;2022-12-26T07:46:55;12.60;;;8.60;;
52934;SDS011;38802;50.198;19.796;2022-12-26T07:49:24;9.20;;;7.70;;
52934;SDS011;38802;50.198;19.796;2022-12-26T07:51:53;12.20;;;8.20;;
52934;SDS011;38802;50.198;19.796;2022-12-26T07:54:22;10.30;;;8.60;;
52934;SDS011;38802;50.198;19.796;2022-12-26T07:56:50;9.60;;;8.30;;
52934;SDS011;38802;50.198;19.796;2022-12-26T07:59:18;8.80;;;7.50;;
52934;SDS011;38802;50.198;19.796;2022-12-26T08:01:46;10.40;;;8.30;;
52934;SDS011;38802;50.198;19.796;2022-12-26T08:04:15;9.50;;;8.50;;
52934;SDS011;38802;50.198;19.796;2022-12-26T08:06:44;9.50;;;8.50;;
52934;SDS011;38802;50.198;19.796;2022-12-26T08:09:13;14.20;;;9.10;;
52934;SDS011;38802;50.198;19.796;2022-12-26T08:11:45;9.40;;;8.30;;
52934;SDS011;38802;50.198;19.796;2022-12-26T08:14:14;9.00;;;7.50;;
52934;SDS011;38802;50.198;19.796;2022-12-26T08:16:46;9.60;;;8.10;;
52934;SDS011;38802;50.198;19.796;2022-12-26T08:19:34;11.60;;;8.80;;
52934;SDS011;38802;50.198;19.796;2022-12-26T08:22:02;8.60;;;7.30;;
52934;SDS011;38802;50.198;19.796;2022-12-26T08:24:30;10.60;;;7.80;;
52934;SDS011;38802;50.198;19.796;2022-12-26T08:26:59;11.50;;;8.00;;
52934;SDS011;38802;50.198;19.796;2022-12-26T08:29:29;9.70;;;8.30;;
52934;SDS011;38802;50.198;19.796;2022-12-26T08:31:57;13.30;;;8.90;;
52934;SDS011;38802;50.198;19.796;2022-12-26T08:34:30;12.20;;;9.70;;
52934;SDS011;38802;50.198;19.796;2022-12-26T08:36:59;10.40;;;9.10;;
52934;SDS011;38802;50.198;19.796;2022-12-26T08:39:27;11.60;;;9.50;;
52934;SDS011;38802;50.198;19.796;2022-12-26T08:41:55;11.10;;;10.00;;
52934;SDS011;38802;50.198;19.796;2022-12-26T08:44:24;9.30;;;8.40;;
52934;SDS011;38802;50.198;19.796;2022-12-26T08:46:54;10.70;;;8.60;;
52934;SDS011;38802;50.198;19.796;2022-12-26T08:49:22;9.80;;;8.70;;
52934;SDS011;38802;50.198;19.796;2022-12-26T08:51:50;11.30;;;8.90;;
52934;SDS011;38802;50.198;19.796;2022-12-26T08:54:18;9.00;;;8.00;;
52934;SDS011;38802;50.198;19.796;2022-12-26T08:56:46;9.90;;;7.90;;
52934;SDS011;38802;50.198;19.796;2022-12-26T08:59:15;8.60;;;7.60;;
52934;SDS011;38802;50.198;19.796;2022-12-26T09:01:43;9.30;;;7.30;;
52934;SDS011;38802;50.198;19.796;2022-12-26T09:04:12;8.80;;;7.90;;
52934;SDS011;38802;50.198;19.796;2022-12-26T09:06:41;8.10;;;7.40;;
52934;SDS011;38802;50.198;19.796;2022-12-26T09:09:09;7.90;;;7.10;;
52934;SDS011;38802;50.198;19.796;2022-12-26T09:11:39;8.30;;;7.40;;
52934;SDS011;38802;50.198;19.796;2022-12-26T09:14:09;12.30;;;8.80;;
52934;SDS011;38802;50.198;19.796;2022-12-26T09:16:39;8.40;;;7.60;;
52934;SDS011;38802;50.198;19.796;2022-12-26T09:19:17;9.20;;;7.60;;
52934;SDS011;38802;50.198;19.796;2022-12-26T09:21:47;9.10;;;8.00;;
52934;SDS011;38802;50.198;19.796;2022-12-26T09:24:16;12.00;;;8.10;;
52934;SDS011;38802;50.198;19.796;2022-12-26T09:26:45;8.30;;;7.00;;
52934;SDS011;38802;50.198;19.796;2022-12-26T09:29:14;9.10;;;7.50;;
52934;SDS011;38802;50.198;19.796;2022-12-26T09:31:42;12.30;;;7.40;;
52934;SDS011;38802;50.198;19.796;2022-12-26T09:34:10;9.00;;;8.00;;
52934;SDS011;38802;50.198;19.796;2022-12-26T09:36:38;7.80;;;7.00;;
52934;SDS011;38802;50.198;19.796;2022-12-26T09:39:09;9.30;;;7.50;;
52934;SDS011;38802;50.198;19.796;2022-12-26T10:03:48;9.30;;;7.20;;
52934;SDS011;38802;50.198;19.796;2022-12-26T10:06:20;7.10;;;6.40;;
52934;SDS011;38802;50.198;19.796;2022-12-26T10:14:36;9.30;;;7.10;;
52934;SDS011;38802;50.198;19.796;2022-12-26T10:17:10;8.50;;;6.70;;
52934;SDS011;38802;50.198;19.796;2022-12-26T10:22:34;6.80;;;6.10;;
52934;SDS011;38802;50.198;19.796;2022-12-26T10:25:42;8.70;;;5.50;;
52934;SDS011;38802;50.198;19.796;2022-12-26T10:28:30;8.70;;;6.20;;
52934;SDS011;38802;50.198;19.796;2022-12-26T10:31:12;10.20;;;5.60;;
52934;SDS011;38802;50.198;19.796;2022-12-26T10:34:21;6.50;;;5.30;;
52934;SDS011;38802;50.198;19.796;2022-12-26T10:37:34;10.90;;;6.60;;
52934;SDS011;38802;50.198;19.796;2022-12-26T10:42:38;9.70;;;6.40;;
52934;SDS011;38802;50.198;19.796;2022-12-26T10:45:14;10.10;;;5.90;;
52934;SDS011;38802;50.198;19.796;2022-12-26T10:47:48;11.40;;;6.90;;
52934;SDS011;38802;50.198;19.796;2022-12-26T10:50:19;7.50;;;6.20;;
52934;SDS011;38802;50.198;19.796;2022-12-26T10:52:55;7.20;;;6.00;;
52934;SDS011;38802;50.198;19.796;2022-12-26T10:55:26;8.40;;;6.30;;
52934;SDS011;38802;50.198;19.796;2022-12-26T10:58:00;9.30;;;6.30;;
52934;SDS011;38802;50.198;19.796;2022-12-26T11:00:33;10.80;;;6.30;;
52934;SDS011;38802;50.198;19.796;2022-12-26T11:03:07;10.30;;;6.40;;
52934;SDS011;38802;50.198;19.796;2022-12-26T11:05:39;10.30;;;6.60;;
52934;SDS011;38802;50.198;19.796;2022-12-26T11:13:46;7.70;;;6.40;;
52934;SDS011;38802;50.198;19.796;2022-12-26T11:16:29;9.20;;;6.00;;
52934;SDS011;38802;50.198;19.796;2022-12-26T11:19:02;8.70;;;6.50;;
52934;SDS011;38802;50.198;19.796;2022-12-26T11:21:31;7.90;;;7.10;;
52934;SDS011;38802;50.198;19.796;2022-12-26T11:26:35;8.10;;;6.70;;
52934;SDS011;38802;50.198;19.796;2022-12-26T11:31:58;8.80;;;7.00;;
52934;SDS011;38802;50.198;19.796;2022-12-26T11:34:37;10.70;;;7.20;;
52934;SDS011;38802;50.198;19.796;2022-12-26T11:37:22;8.90;;;7.30;;
52934;SDS011;38802;50.198;19.796;2022-12-26T11:39:58;9.50;;;6.50;;
52934;SDS011;38802;50.198;19.796;2022-12-26T11:42:28;10.10;;;7.20;;
52934;SDS011;38802;50.198;19.796;2022-12-26T11:44:57;9.40;;;6.70;;
52934;SDS011;38802;50.198;19.796;2022-12-26T11:47:29;10.10;;;6.70;;
52934;SDS011;38802;50.198;19.796;2022-12-26T11:57:58;8.00;;;7.10;;
52934;SDS011;38802;50.198;19.796;2022-12-26T12:00:36;6.90;;;6.20;;
52934;SDS011;38802;50.198;19.796;2022-12-26T12:03:11;8.00;;;6.70;;
52934;SDS011;38802;50.198;19.796;2022-12-26T12:14:05;7.70;;;7.00;;
52934;SDS011;38802;50.198;19.796;2022-12-26T12:16:43;7.40;;;5.90;;
52934;SDS011;38802;50.198;19.796;2022-12-26T12:28:16;11.30;;;7.30;;
52934;SDS011;38802;50.198;19.796;2022-12-26T12:37:27;9.40;;;6.80;;
52934;SDS011;38802;50.198;19.796;2022-12-26T12:45:54;10.40;;;7.40;;
52934;SDS011;38802;50.198;19.796;2022-12-26T12:51:18;7.20;;;6.50;;
52934;SDS011;38802;50.198;19.796;2022-12-26T12:56:41;7.40;;;6.60;;
52934;SDS011;38802;50.198;19.796;2022-12-26T12:59:29;8.70;;;7.10;;
52934;SDS011;38802;50.198;19.796;2022-12-26T13:02:03;7.20;;;6.40;;
52934;SDS011;38802;50.198;19.796;2022-12-26T13:04:46;12.30;;;6.20;;
52934;SDS011;38802;50.198;19.796;2022-12-26T13:07:24;12.80;;;8.30;;
52934;SDS011;38802;50.198;19.796;2022-12-26T13:09:59;8.50;;;6.80;;
52934;SDS011;38802;50.198;19.796;2022-12-26T13:12:35;7.20;;;6.00;;
52934;SDS011;38802;50.198;19.796;2022-12-26T13:17:55;6.70;;;5.80;;
52934;SDS011;38802;50.198;19.796;2022-12-26T13:23:30;8.00;;;7.00;;
52934;SDS011;38802;50.198;19.796;2022-12-26T13:26:36;7.90;;;6.30;;
52934;SDS011;38802;50.198;19.796;2022-12-26T13:29:12;10.50;;;6.10;;
52934;SDS011;38802;50.198;19.796;2022-12-26T13:32:03;7.70;;;6.10;;
52934;SDS011;38802;50.198;19.796;2022-12-26T13:34:42;9.50;;;6.80;;
52934;SDS011;38802;50.198;19.796;2022-12-26T13:40:02;12.40;;;8.20;;
52934;SDS011;38802;50.198;19.796;2022-12-26T13:42:50;9.60;;;6.60;;
52934;SDS011;38802;50.198;19.796;2022-12-26T13:45:46;11.30;;;8.30;;
52934;SDS011;38802;50.198;19.796;2022-12-26T13:50:49;9.90;;;7.50;;
52934;SDS011;38802;50.198;19.796;2022-12-26T13:55:57;10.80;;;7.70;;
52934;SDS011;38802;50.198;19.796;2022-12-26T14:01:02;15.20;;;8.70;;
52934;SDS011;38802;50.198;19.796;2022-12-26T14:03:50;8.90;;;7.20;;
52934;SDS011;38802;50.198;19.796;2022-12-26T14:09:34;11.90;;;6.70;;
52934;SDS011;38802;50.198;19.796;2022-12-26T14:18:07;9.70;;;6.70;;
52934;SDS011;38802;50.198;19.796;2022-12-26T14:29:42;8.60;;;7.70;;
52934;SDS011;38802;50.198;19.796;2022-12-26T14:38:08;8.70;;;7.10;;
52934;SDS011;38802;50.198;19.796;2022-12-26T14:41:00;10.60;;;7.80;;
52934;SDS011;38802;50.198;19.796;2022-12-26T14:48:58;12.80;;;7.40;;
52934;SDS011;38802;50.198;19.796;2022-12-26T14:51:44;15.70;;;7.70;;
52934;SDS011;38802;50.198;19.796;2022-12-26T14:56:51;13.30;;;8.90;;
52934;SDS011;38802;50.198;19.796;2022-12-26T15:13:41;11.20;;;8.10;;
52934;SDS011;38802;50.198;19.796;2022-12-26T15:36:29;17.80;;;11.00;;
52934;SDS011;38802;50.198;19.796;2022-12-26T15:39:04;12.30;;;10.00;;
52934;SDS011;38802;50.198;19.796;2022-12-26T15:41:47;14.50;;;10.40;;
52934;SDS011;38802;50.198;19.796;2022-12-26T15:47:21;13.70;;;9.90;;
52934;SDS011;38802;50.198;19.796;2022-12-26T15:50:00;14.90;;;9.10;;
52934;SDS011;38802;50.198;19.796;2022-12-26T15:52:42;12.90;;;9.60;;
52934;SDS011;38802;50.198;19.796;2022-12-26T16:01:04;14.30;;;9.50;;
52934;SDS011;38802;50.198;19.796;2022-12-26T16:03:40;14.60;;;10.90;;
52934;SDS011;38802;50.198;19.796;2022-12-26T16:06:34;14.70;;;9.30;;
52934;SDS011;38802;50.198;19.796;2022-12-26T16:17:37;14.50;;;10.90;;
52934;SDS011;38802;50.198;19.796;2022-12-26T16:23:16;12.50;;;9.80;;
52934;SDS011;38802;50.198;19.796;2022-12-26T16:25:49;16.00;;;11.10;;
52934;SDS011;38802;50.198;19.796;2022-12-26T16:28:41;16.30;;;10.80;;
52934;SDS011;38802;50.198;19.796;2022-12-26T16:31:15;13.20;;;10.20;;
52934;SDS011;38802;50.198;19.796;2022-12-26T16:33:50;13.90;;;10.60;;
52934;SDS011;38802;50.198;19.796;2022-12-26T16:36:24;17.20;;;11.50;;
52934;SDS011;38802;50.198;19.796;2022-12-26T16:38:54;22.00;;;13.40;;
52934;SDS011;38802;50.198;19.796;2022-12-26T16:43:54;17.10;;;12.00;;
52934;SDS011;38802;50.198;19.796;2022-12-26T16:46:26;18.50;;;12.60;;
52934;SDS011;38802;50.198;19.796;2022-12-26T16:48:58;14.60;;;11.20;;
52934;SDS011;38802;50.198;19.796;2022-12-26T16:54:24;20.60;;;12.10;;
52934;SDS011;38802;50.198;19.796;2022-12-26T16:59:34;17.70;;;11.40;;
52934;SDS011;38802;50.198;19.796;2022-12-26T17:02:25;13.40;;;10.40;;
52934;SDS011;38802;50.198;19.796;2022-12-26T17:05:14;16.20;;;11.00;;
52934;SDS011;38802;50.198;19.796;2022-12-26T17:07:47;17.90;;;10.70;;
52934;SDS011;38802;50.198;19.796;2022-12-26T17:10:19;14.40;;;12.10;;
52934;SDS011;38802;50.198;19.796;2022-12-26T17:12:53;14.50;;;10.30;;
52934;SDS011;38802;50.198;19.796;2022-12-26T17:15:26;14.30;;;10.80;;
52934;SDS011;38802;50.198;19.796;2022-12-26T17:17:57;11.30;;;9.20;;
52934;SDS011;38802;50.198;19.796;2022-12-26T17:20:32;14.10;;;10.10;;
52934;SDS011;38802;50.198;19.796;2022-12-26T17:23:29;10.40;;;9.30;;
52934;SDS011;38802;50.198;19.796;2022-12-26T17:26:20;9.80;;;8.50;;
52934;SDS011;38802;50.198;19.796;2022-12-26T17:28:53;12.90;;;9.60;;
52934;SDS011;38802;50.198;19.796;2022-12-26T17:31:30;13.20;;;9.80;;
52934;SDS011;38802;50.198;19.796;2022-12-26T17:34:05;13.30;;;8.80;;
52934;SDS011;38802;50.198;19.796;2022-12-26T17:36:41;11.40;;;9.20;;
52934;SDS011;38802;50.198;19.796;2022-12-26T17:39:29;17.40;;;10.60;;
52934;SDS011;38802;50.198;19.796;2022-12-26T17:41:58;12.90;;;10.30;;
52934;SDS011;38802;50.198;19.796;2022-12-26T17:44:41;13.70;;;10.80;;
52934;SDS011;38802;50.198;19.796;2022-12-26T17:47:18;12.00;;;9.10;;
52934;SDS011;38802;50.198;19.796;2022-12-26T17:49:50;13.80;;;10.50;;
52934;SDS011;38802;50.198;19.796;2022-12-26T17:52:24;12.20;;;10.00;;
52934;SDS011;38802;50.198;19.796;2022-12-26T17:54:57;12.50;;;10.50;;
52934;SDS011;38802;50.198;19.796;2022-12-26T17:57:27;11.10;;;9.30;;
52934;SDS011;38802;50.198;19.796;2022-12-26T17:59:56;15.40;;;10.10;;
52934;SDS011;38802;50.198;19.796;2022-12-26T18:02:24;9.70;;;8.40;;
52934;SDS011;38802;50.198;19.796;2022-12-26T18:04:53;10.00;;;8.50;;
52934;SDS011;38802;50.198;19.796;2022-12-26T18:07:22;10.90;;;8.60;;
52934;SDS011;38802;50.198;19.796;2022-12-26T18:09:59;12.40;;;8.30;;
52934;SDS011;38802;50.198;19.796;2022-12-26T18:12:29;9.00;;;8.20;;
52934;SDS011;38802;50.198;19.796;2022-12-26T18:14:57;9.10;;;8.20;;
52934;SDS011;38802;50.198;19.796;2022-12-26T18:17:30;9.70;;;8.80;;
52934;SDS011;38802;50.198;19.796;2022-12-26T18:20:01;10.40;;;8.60;;
52934;SDS011;38802;50.198;19.796;2022-12-26T18:22:31;8.60;;;7.50;;
52934;SDS011;38802;50.198;19.796;2022-12-26T18:24:59;10.00;;;7.50;;
52934;SDS011;38802;50.198;19.796;2022-12-26T18:27:31;12.70;;;8.30;;
52934;SDS011;38802;50.198;19.796;2022-12-26T18:30:00;9.20;;;8.30;;
52934;SDS011;38802;50.198;19.796;2022-12-26T18:32:30;12.00;;;8.70;;
52934;SDS011;38802;50.198;19.796;2022-12-26T18:34:59;8.10;;;7.40;;
52934;SDS011;38802;50.198;19.796;2022-12-26T18:37:28;12.20;;;8.70;;
52934;SDS011;38802;50.198;19.796;2022-12-26T18:39:57;10.30;;;8.70;;
52934;SDS011;38802;50.198;19.796;2022-12-26T18:42:25;9.30;;;7.80;;
52934;SDS011;38802;50.198;19.796;2022-12-26T18:44:54;8.80;;;8.00;;
52934;SDS011;38802;50.198;19.796;2022-12-26T18:47:25;11.10;;;8.40;;
52934;SDS011;38802;50.198;19.796;2022-12-26T18:49:53;7.90;;;7.20;;
52934;SDS011;38802;50.198;19.796;2022-12-26T18:52:21;8.20;;;7.40;;
52934;SDS011;38802;50.198;19.796;2022-12-26T18:54:50;8.40;;;7.60;;
52934;SDS011;38802;50.198;19.796;2022-12-26T18:57:18;7.90;;;7.20;;
52934;SDS011;38802;50.198;19.796;2022-12-26T18:59:47;7.70;;;7.00;;
52934;SDS011;38802;50.198;19.796;2022-12-26T19:02:16;8.30;;;7.10;;
52934;SDS011;38802;50.198;19.796;2022-12-26T19:04:46;8.10;;;7.00;;
52934;SDS011;38802;50.198;19.796;2022-12-26T19:07:16;8.60;;;7.60;;
52934;SDS011;38802;50.198;19.796;2022-12-26T19:09:49;8.20;;;6.60;;
52934;SDS011;38802;50.198;19.796;2022-12-26T19:12:21;9.40;;;8.10;;
52934;SDS011;38802;50.198;19.796;2022-12-26T19:14:50;9.00;;;8.20;;
52934;SDS011;38802;50.198;19.796;2022-12-26T19:17:19;8.90;;;8.00;;
52934;SDS011;38802;50.198;19.796;2022-12-26T19:19:49;9.70;;;7.90;;
52934;SDS011;38802;50.198;19.796;2022-12-26T19:22:18;11.10;;;9.10;;